createdAt,value
2017-11-24T00:00:14.420Z,0
2017-11-24T00:01:24.226Z,0
2017-11-24T00:02:33.781Z,0
2017-11-24T00:03:43.847Z,0
2017-11-24T00:04:53.678Z,0
2017-11-24T00:06:03.755Z,0
2017-11-24T00:07:13.563Z,0
2017-11-24T00:08:23.644Z,0
2017-11-24T00:09:33.713Z,0
2017-11-24T00:10:43.514Z,0
2017-11-24T00:11:53.326Z,0
2017-11-24T00:13:03.402Z,0
2017-11-24T00:14:13.490Z,0
2017-11-24T00:15:23.297Z,0
2017-11-24T00:16:33.414Z,0
2017-11-24T00:17:42.966Z,0
2017-11-24T00:18:52.792Z,0
2017-11-24T00:20:02.338Z,0
2017-11-24T00:21:11.868Z,0
2017-11-24T00:22:21.958Z,0
2017-11-24T00:23:31.230Z,0
2017-11-24T00:24:41.314Z,0
2017-11-24T00:25:50.852Z,0
2017-11-24T00:27:00.929Z,0
2017-11-24T00:28:10.736Z,0
2017-11-24T00:29:20.867Z,0
2017-11-24T00:30:30.674Z,0
2017-11-24T00:31:40.485Z,0
2017-11-24T00:32:50.032Z,0
2017-11-24T00:34:00.116Z,0
2017-11-24T00:35:10.241Z,0
2017-11-24T00:36:20.310Z,0
2017-11-24T00:37:29.315Z,0
2017-11-24T00:38:39.147Z,0
2017-11-24T00:39:49.218Z,0
2017-11-24T00:40:59.299Z,0
2017-11-24T00:42:09.132Z,0
2017-11-24T00:43:18.942Z,0
2017-11-24T00:44:28.493Z,0
2017-11-24T00:45:38.560Z,0
2017-11-24T00:46:48.633Z,0
2017-11-24T00:47:58.436Z,0
2017-11-24T00:49:08.231Z,0
2017-11-24T00:50:18.319Z,0
2017-11-24T00:51:28.126Z,0
2017-11-24T00:52:38.008Z,0
2017-11-24T00:53:47.539Z,0
2017-11-24T00:54:57.087Z,0
2017-11-24T00:56:07.092Z,0
2017-11-24T00:57:16.918Z,0
2017-11-24T00:58:26.811Z,0
2017-11-24T00:59:36.883Z,0
2017-11-24T01:00:46.427Z,0
2017-11-24T01:01:56.503Z,0
2017-11-24T01:03:06.590Z,0
2017-11-24T01:04:15.861Z,0
2017-11-24T01:05:25.941Z,0
2017-11-24T01:06:36.024Z,0
2017-11-24T01:07:46.109Z,0
2017-11-24T01:08:55.652Z,0
2017-11-24T01:10:05.458Z,0
2017-11-24T01:11:15.560Z,0
2017-11-24T01:12:25.633Z,0
2017-11-24T01:13:35.714Z,0
2017-11-24T01:14:45.790Z,0
2017-11-24T01:15:55.883Z,0
2017-11-24T01:17:06.795Z,0
2017-11-24T01:18:16.611Z,0
2017-11-24T01:19:26.416Z,0
2017-11-24T01:20:37.403Z,0
2017-11-24T01:21:47.468Z,0
2017-11-24T01:22:57.267Z,0
2017-11-24T01:24:07.076Z,0
2017-11-24T01:25:17.164Z,0
2017-11-24T01:26:27.028Z,0
2017-11-24T01:27:37.107Z,0
2017-11-24T01:28:46.923Z,0
2017-11-24T01:29:57.002Z,0
2017-11-24T01:31:07.084Z,0
2017-11-24T01:32:16.920Z,0
2017-11-24T01:33:27.000Z,0
2017-11-24T01:34:36.792Z,0
2017-11-24T01:35:46.352Z,0
2017-11-24T01:36:55.903Z,0
2017-11-24T01:38:05.450Z,0
2017-11-24T01:39:15.525Z,0
2017-11-24T01:40:25.064Z,0
2017-11-24T01:41:34.603Z,0
2017-11-24T01:42:44.697Z,0
2017-11-24T01:43:54.772Z,0
2017-11-24T01:45:04.323Z,0
2017-11-24T01:46:14.403Z,0
2017-11-24T01:47:24.229Z,0
2017-11-24T01:48:34.032Z,0
2017-11-24T01:49:44.121Z,0
2017-11-24T01:50:54.206Z,0
2017-11-24T01:52:04.287Z,0
2017-11-24T01:53:14.356Z,0
2017-11-24T01:54:24.436Z,0
2017-11-24T01:55:34.562Z,0
2017-11-24T01:56:44.634Z,0
2017-11-24T01:57:54.440Z,0
2017-11-24T01:59:04.003Z,0
2017-11-24T02:00:14.086Z,0
2017-11-24T02:01:24.225Z,0
2017-11-24T02:02:34.332Z,0
2017-11-24T02:03:44.149Z,0
2017-11-24T02:04:53.942Z,0
2017-11-24T02:06:03.724Z,0
2017-11-24T02:07:13.536Z,0
2017-11-24T02:08:23.612Z,0
2017-11-24T02:09:33.416Z,0
2017-11-24T02:10:43.221Z,0
2017-11-24T02:11:53.283Z,0
2017-11-24T02:13:03.358Z,0
2017-11-24T02:14:13.164Z,0
2017-11-24T02:15:23.267Z,0
2017-11-24T02:16:33.071Z,0
2017-11-24T02:17:43.159Z,0
2017-11-24T02:18:53.222Z,0
2017-11-24T02:20:03.299Z,0
2017-11-24T02:21:13.385Z,0
2017-11-24T02:22:23.672Z,0
2017-11-24T02:23:33.494Z,0
2017-11-24T02:24:43.660Z,0
2017-11-24T02:25:53.756Z,0
2017-11-24T02:27:03.040Z,0
2017-11-24T02:28:13.127Z,0
2017-11-24T02:29:22.947Z,0
2017-11-24T02:30:33.030Z,0
2017-11-24T02:31:43.107Z,0
2017-11-24T02:32:53.198Z,0
2017-11-24T02:34:03.009Z,0
2017-11-24T02:35:12.817Z,0
2017-11-24T02:36:22.688Z,0
2017-11-24T02:37:31.970Z,0
2017-11-24T02:38:41.783Z,0
2017-11-24T02:39:51.614Z,0
2017-11-24T02:41:01.700Z,0
2017-11-24T02:42:11.802Z,0
2017-11-24T02:43:21.900Z,0
2017-11-24T02:44:31.451Z,0
2017-11-24T02:45:41.274Z,0
2017-11-24T02:46:51.088Z,0
2017-11-24T02:48:00.904Z,0
2017-11-24T02:49:10.704Z,0
2017-11-24T02:50:20.783Z,0
2017-11-24T02:51:30.328Z,0
2017-11-24T02:52:40.425Z,0
2017-11-24T02:53:50.565Z,0
2017-11-24T02:55:00.661Z,0
2017-11-24T02:56:10.734Z,0
2017-11-24T02:57:20.555Z,0
2017-11-24T02:58:30.651Z,0
2017-11-24T02:59:40.539Z,0
2017-11-24T03:00:50.607Z,0
2017-11-24T03:02:00.429Z,0
2017-11-24T03:34:13.608Z,0
2017-11-24T03:35:23.717Z,0
2017-11-24T03:36:33.799Z,0
2017-11-24T03:37:43.642Z,0
2017-11-24T03:38:53.443Z,0
2017-11-24T03:40:03.301Z,0
2017-11-24T03:41:13.379Z,0
2017-11-24T03:42:22.919Z,0
2017-11-24T03:43:32.990Z,0
2017-11-24T03:44:42.799Z,0
2017-11-24T03:45:52.916Z,0
2017-11-24T03:47:02.981Z,0
2017-11-24T03:48:12.804Z,0
2017-11-24T03:49:22.632Z,0
2017-11-24T03:50:32.445Z,0
2017-11-24T03:51:42.537Z,0
2017-11-24T03:52:52.346Z,0
2017-11-24T03:54:02.155Z,0
2017-11-24T03:55:12.215Z,0
2017-11-24T03:56:22.024Z,0
2017-11-24T03:57:32.111Z,0
2017-11-24T03:58:42.178Z,0
2017-11-24T03:59:51.992Z,0
2017-11-24T04:01:02.103Z,0
2017-11-24T04:02:12.592Z,0
2017-11-24T04:03:22.665Z,0
2017-11-24T04:04:32.758Z,0
2017-11-24T04:05:42.558Z,0
2017-11-24T04:06:52.620Z,0
2017-11-24T04:08:02.426Z,0
2017-11-24T04:09:11.713Z,0
2017-11-24T04:10:21.538Z,0
2017-11-24T04:11:31.632Z,0
2017-11-24T04:12:41.442Z,0
2017-11-24T04:13:51.535Z,0
2017-11-24T04:15:01.672Z,0
2017-11-24T04:16:11.474Z,0
2017-11-24T04:17:21.290Z,0
2017-11-24T04:18:31.365Z,0
2017-11-24T04:19:41.183Z,0
2017-11-24T04:20:51.266Z,0
2017-11-24T04:22:01.087Z,0
2017-11-24T04:23:10.649Z,0
2017-11-24T04:24:20.720Z,0
2017-11-24T04:25:30.792Z,0
2017-11-24T04:26:41.689Z,0
2017-11-24T04:27:51.505Z,0
2017-11-24T04:29:01.341Z,0
2017-11-24T04:30:11.444Z,0
2017-11-24T04:31:21.256Z,0
2017-11-24T04:32:31.408Z,0
2017-11-24T04:33:41.476Z,0
2017-11-24T04:34:51.016Z,0
2017-11-24T04:36:01.104Z,0
2017-11-24T04:37:10.901Z,0
2017-11-24T04:38:20.771Z,0
2017-11-24T04:39:30.587Z,0
2017-11-24T04:40:40.665Z,0
2017-11-24T04:41:50.742Z,0
2017-11-24T04:43:00.825Z,0
2017-11-24T04:44:10.649Z,0
2017-11-24T04:45:20.723Z,0
2017-11-24T04:46:31.848Z,0
2017-11-24T04:47:41.928Z,0
2017-11-24T04:48:52.002Z,0
2017-11-24T04:50:02.088Z,0
2017-11-24T04:51:11.894Z,0
2017-11-24T04:52:21.970Z,0
2017-11-24T04:53:31.509Z,0
2017-11-24T04:54:41.327Z,0
2017-11-24T04:55:51.201Z,0
2017-11-24T04:57:01.314Z,0
2017-11-24T04:58:11.403Z,0
2017-11-24T04:59:20.971Z,0
2017-11-24T05:00:31.046Z,0
2017-11-24T05:01:40.903Z,0
2017-11-24T05:02:50.725Z,0
2017-11-24T05:04:00.790Z,0
2017-11-24T05:05:10.353Z,0
2017-11-24T05:06:20.433Z,0
2017-11-24T05:07:30.551Z,0
2017-11-24T05:08:40.627Z,0
2017-11-24T05:09:50.682Z,0
2017-11-24T05:11:00.771Z,0
2017-11-24T05:12:10.883Z,0
2017-11-24T05:13:20.706Z,0
2017-11-24T05:14:30.528Z,0
2017-11-24T05:15:40.602Z,0
2017-11-24T05:16:50.658Z,0
2017-11-24T05:18:00.473Z,0
2017-11-24T05:19:10.277Z,0
2017-11-24T05:20:19.800Z,0
2017-11-24T05:21:29.878Z,0
2017-11-24T05:22:39.708Z,0
2017-11-24T05:23:49.511Z,0
2017-11-24T05:25:00.947Z,0
2017-11-24T05:26:10.759Z,0
2017-11-24T05:27:20.832Z,0
2017-11-24T05:28:30.657Z,0
2017-11-24T05:29:40.465Z,0
2017-11-24T05:30:50.012Z,0
2017-11-24T05:31:59.814Z,0
2017-11-24T05:33:09.626Z,0
2017-11-24T05:34:18.896Z,0
2017-11-24T05:35:28.455Z,0
2017-11-24T05:36:38.036Z,0
2017-11-24T05:37:47.846Z,0
2017-11-24T05:38:57.671Z,0
2017-11-24T05:40:06.963Z,0
2017-11-24T05:41:17.046Z,0
2017-11-24T05:42:26.877Z,0
2017-11-24T05:43:36.952Z,0
2017-11-24T05:44:47.036Z,0
2017-11-24T05:45:57.133Z,0
2017-11-24T05:47:07.210Z,0
2017-11-24T05:48:17.028Z,0
2017-11-24T05:49:27.118Z,0
2017-11-24T05:50:37.200Z,0
2017-11-24T05:51:47.023Z,0
2017-11-24T05:52:56.845Z,0
2017-11-24T05:54:06.940Z,0
2017-11-24T05:55:17.015Z,0
2017-11-24T05:56:26.820Z,0
2017-11-24T05:57:36.624Z,0
2017-11-24T05:58:46.175Z,0
2017-11-24T05:59:55.726Z,0
2017-11-24T06:01:05.831Z,0
2017-11-24T06:02:15.904Z,0
2017-11-24T06:03:25.450Z,0
2017-11-24T06:04:35.287Z,0
2017-11-24T06:05:45.369Z,0
2017-11-24T06:06:55.528Z,0
2017-11-24T06:08:05.354Z,0
2017-11-24T06:09:15.431Z,0
2017-11-24T06:10:25.511Z,0
2017-11-24T06:11:35.609Z,0
2017-11-24T06:12:45.455Z,0
2017-11-24T06:13:55.529Z,0
2017-11-24T06:15:05.627Z,0
2017-11-24T06:16:15.422Z,0
2017-11-24T06:17:25.498Z,0
2017-11-24T06:18:35.306Z,0
2017-11-24T06:19:45.131Z,0
2017-11-24T06:20:55.192Z,0
2017-11-24T06:22:04.736Z,0
2017-11-24T06:23:14.289Z,0
2017-11-24T06:24:24.392Z,0
2017-11-24T06:25:34.486Z,0
2017-11-24T06:26:44.554Z,0
2017-11-24T06:27:54.646Z,0
2017-11-24T06:29:04.724Z,0
2017-11-24T06:30:14.859Z,0
2017-11-24T06:31:24.927Z,0
2017-11-24T06:32:34.746Z,0
2017-11-24T06:33:44.291Z,0
2017-11-24T06:34:54.385Z,0
2017-11-24T06:36:04.458Z,0
2017-11-24T06:37:14.521Z,0
2017-11-24T06:38:24.343Z,0
2017-11-24T06:39:34.410Z,0
2017-11-24T06:40:44.485Z,0
2017-11-24T06:41:54.648Z,5
2017-11-24T06:43:04.459Z,5
2017-11-24T06:44:14.257Z,5
2017-11-24T06:45:24.090Z,5
2017-11-24T06:46:34.173Z,5
2017-11-24T06:47:44.245Z,5
2017-11-24T06:48:54.313Z,5
2017-11-24T06:50:04.419Z,5
2017-11-24T06:51:14.490Z,5
2017-11-24T06:52:24.310Z,5
2017-11-24T06:53:34.435Z,5
2017-11-24T06:54:44.511Z,5
2017-11-24T06:55:54.623Z,5
2017-11-24T06:57:04.161Z,10
2017-11-24T06:58:14.587Z,10
2017-11-24T06:59:24.407Z,10
2017-11-24T07:00:34.240Z,10
2017-11-24T07:01:44.057Z,10
2017-11-24T07:02:53.899Z,10
2017-11-24T07:04:03.968Z,10
2017-11-24T07:05:13.789Z,10
2017-11-24T07:06:23.589Z,10
2017-11-24T07:07:33.394Z,10
2017-11-24T07:08:43.204Z,10
2017-11-24T07:09:53.275Z,10
2017-11-24T07:11:03.406Z,10
2017-11-24T07:12:13.503Z,10
2017-11-24T07:13:23.325Z,10
2017-11-24T07:14:33.413Z,10
2017-11-24T07:15:43.495Z,15
2017-11-24T07:16:53.310Z,10
2017-11-24T07:18:03.392Z,15
2017-11-24T07:19:13.458Z,15
2017-11-24T07:20:23.264Z,15
2017-11-24T07:21:33.349Z,15
2017-11-24T07:22:43.432Z,15
2017-11-24T07:23:53.500Z,15
2017-11-24T07:25:03.323Z,15
2017-11-24T07:26:13.137Z,15
2017-11-24T07:27:22.970Z,15
2017-11-24T07:28:32.805Z,15
2017-11-24T07:29:42.897Z,15
2017-11-24T07:30:53.033Z,15
2017-11-24T07:32:02.567Z,20
2017-11-24T07:33:12.118Z,20
2017-11-24T07:34:21.987Z,20
2017-11-24T07:35:32.044Z,20
2017-11-24T07:36:41.871Z,20
2017-11-24T07:37:51.681Z,20
2017-11-24T07:39:01.492Z,20
2017-11-24T07:40:11.305Z,20
2017-11-24T07:41:21.393Z,20
2017-11-24T07:42:31.204Z,20
2017-11-24T07:43:41.283Z,20
2017-11-24T07:44:51.351Z,20
2017-11-24T07:46:00.881Z,25
2017-11-24T07:47:10.690Z,25
2017-11-24T07:48:20.799Z,25
2017-11-24T07:49:30.888Z,25
2017-11-24T07:50:40.706Z,25
2017-11-24T07:51:50.312Z,25
2017-11-24T07:53:00.138Z,25
2017-11-24T07:54:10.213Z,25
2017-11-24T07:55:20.303Z,25
2017-11-24T07:56:30.110Z,25
2017-11-24T07:57:40.241Z,25
2017-11-24T07:58:50.334Z,25
2017-11-24T07:59:59.877Z,30
2017-11-24T08:01:09.676Z,30
2017-11-24T08:02:19.760Z,30
2017-11-24T08:03:30.645Z,30
2017-11-24T08:04:40.473Z,30
2017-11-24T08:05:50.553Z,30
2017-11-24T08:07:00.414Z,30
2017-11-24T08:08:10.496Z,30
2017-11-24T08:09:20.571Z,30
2017-11-24T08:10:30.396Z,35
2017-11-24T08:11:40.478Z,35
2017-11-24T08:12:50.336Z,35
2017-11-24T08:13:59.955Z,35
2017-11-24T08:15:09.566Z,35
2017-11-24T08:16:19.374Z,35
2017-11-24T08:17:28.674Z,35
2017-11-24T08:18:38.740Z,35
2017-11-24T08:19:48.553Z,35
2017-11-24T08:20:58.417Z,35
2017-11-24T08:22:08.488Z,40
2017-11-24T08:23:18.594Z,40
2017-11-24T08:24:28.680Z,35
2017-11-24T08:25:38.232Z,40
2017-11-24T08:26:48.209Z,40
2017-11-24T08:27:58.031Z,35
2017-11-24T08:29:08.138Z,40
2017-11-24T08:30:17.936Z,35
2017-11-24T08:31:27.736Z,35
2017-11-24T08:32:37.595Z,40
2017-11-24T08:33:47.662Z,40
2017-11-24T08:34:57.467Z,40
2017-11-24T08:36:07.018Z,40
2017-11-24T08:37:17.102Z,40
2017-11-24T08:38:26.904Z,40
2017-11-24T08:39:36.972Z,40
2017-11-24T08:40:46.783Z,40
2017-11-24T08:41:56.860Z,40
2017-11-24T08:43:06.698Z,40
2017-11-24T08:44:16.536Z,40
2017-11-24T08:45:26.613Z,40
2017-11-24T08:46:36.694Z,40
2017-11-24T08:47:46.551Z,40
2017-11-24T08:48:56.643Z,40
2017-11-24T08:50:06.738Z,40
2017-11-24T08:51:16.806Z,40
2017-11-24T08:52:26.634Z,40
2017-11-24T08:53:36.241Z,40
2017-11-24T08:54:46.054Z,40
2017-11-24T08:55:55.914Z,40
2017-11-24T08:57:06.025Z,40
2017-11-24T08:58:15.575Z,40
2017-11-24T08:59:25.394Z,40
2017-11-24T09:00:35.210Z,40
2017-11-24T09:01:45.337Z,40
2017-11-24T09:02:55.439Z,40
2017-11-24T09:04:05.247Z,40
2017-11-24T09:05:15.045Z,40
2017-11-24T09:06:25.136Z,40
2017-11-24T09:07:35.233Z,40
2017-11-24T09:08:44.782Z,40
2017-11-24T09:09:54.590Z,40
2017-11-24T09:11:04.682Z,40
2017-11-24T09:12:14.760Z,40
2017-11-24T09:13:24.561Z,40
2017-11-24T09:14:34.125Z,40
2017-11-24T09:15:43.671Z,40
2017-11-24T09:16:53.768Z,40
2017-11-24T09:18:03.848Z,40
2017-11-24T09:19:14.183Z,40
2017-11-24T09:20:24.031Z,40
2017-11-24T09:21:33.587Z,40
2017-11-24T09:22:43.677Z,40
2017-11-24T09:23:53.496Z,45
2017-11-24T09:25:03.372Z,45
2017-11-24T09:26:13.475Z,45
2017-11-24T09:27:23.301Z,40
2017-11-24T09:28:33.140Z,40
2017-11-24T09:29:42.983Z,40
2017-11-24T09:30:52.799Z,40
2017-11-24T09:32:02.627Z,40
2017-11-24T09:33:12.734Z,45
2017-11-24T09:34:22.566Z,40
2017-11-24T09:35:32.397Z,40
2017-11-24T09:36:42.693Z,40
2017-11-24T09:37:52.814Z,40
2017-11-24T09:39:02.085Z,45
2017-11-24T09:40:12.182Z,45
2017-11-24T09:41:21.461Z,45
2017-11-24T09:42:31.292Z,45
2017-11-24T09:43:41.096Z,50
2017-11-24T09:44:50.644Z,50
2017-11-24T09:46:00.735Z,50
2017-11-24T09:47:10.552Z,50
2017-11-24T09:48:20.367Z,50
2017-11-24T09:49:30.189Z,55
2017-11-24T09:50:39.728Z,55
2017-11-24T09:51:49.828Z,50
2017-11-24T09:52:59.925Z,50
2017-11-24T09:54:10.396Z,55
2017-11-24T09:55:20.510Z,55
2017-11-24T09:56:30.331Z,55
2017-11-24T09:57:40.421Z,50
2017-11-24T09:58:49.985Z,50
2017-11-24T09:59:59.800Z,45
2017-11-24T10:01:09.622Z,45
2017-11-24T10:02:19.708Z,50
2017-11-24T10:03:29.247Z,55
2017-11-24T10:04:39.333Z,60
2017-11-24T10:05:49.459Z,60
2017-11-24T10:06:59.257Z,60
2017-11-24T10:08:09.348Z,60
2017-11-24T10:09:18.915Z,60
2017-11-24T10:10:28.473Z,60
2017-11-24T10:11:40.105Z,60
2017-11-24T10:12:50.216Z,60
2017-11-24T10:14:00.311Z,60
2017-11-24T10:15:09.871Z,60
2017-11-24T10:16:19.950Z,60
2017-11-24T10:17:30.105Z,60
2017-11-24T10:18:39.914Z,55
2017-11-24T10:19:50.010Z,55
2017-11-24T10:21:00.702Z,55
2017-11-24T10:22:10.527Z,60
2017-11-24T10:23:20.650Z,60
2017-11-24T10:24:30.465Z,60
2017-11-24T10:25:40.291Z,60
2017-11-24T10:26:50.109Z,55
2017-11-24T10:28:00.206Z,55
2017-11-24T10:29:09.765Z,55
2017-11-24T10:30:19.876Z,55
2017-11-24T10:31:29.436Z,50
2017-11-24T10:32:39.550Z,50
2017-11-24T10:33:49.663Z,50
2017-11-24T10:34:59.792Z,50
2017-11-24T10:36:09.639Z,50
2017-11-24T10:37:19.730Z,55
2017-11-24T10:38:29.825Z,60
2017-11-24T10:39:39.647Z,55
2017-11-24T10:40:50.537Z,55
2017-11-24T10:42:00.640Z,55
2017-11-24T10:43:10.756Z,60
2017-11-24T10:44:20.567Z,70
2017-11-24T10:45:30.379Z,70
2017-11-24T10:46:40.291Z,75
2017-11-24T10:47:50.114Z,75
2017-11-24T10:49:01.233Z,75
2017-11-24T10:50:10.771Z,70
2017-11-24T10:51:20.324Z,70
2017-11-24T10:52:30.414Z,70
2017-11-24T10:53:40.236Z,70
2017-11-24T10:54:50.305Z,70
2017-11-24T10:56:00.385Z,75
2017-11-24T10:57:10.191Z,75
2017-11-24T10:58:20.331Z,70
2017-11-24T10:59:30.422Z,60
2017-11-24T11:00:40.267Z,60
2017-11-24T11:01:50.091Z,50
2017-11-24T11:02:59.917Z,55
2017-11-24T11:04:10.081Z,50
2017-11-24T11:05:20.191Z,55
2017-11-24T11:06:30.024Z,50
2017-11-24T11:07:39.867Z,55
2017-11-24T11:08:49.974Z,55
2017-11-24T11:09:59.598Z,50
2017-11-24T11:11:09.129Z,55
2017-11-24T11:12:19.225Z,60
2017-11-24T11:13:29.323Z,60
2017-11-24T11:14:39.530Z,55
2017-11-24T11:15:49.418Z,55
2017-11-24T11:16:59.251Z,55
2017-11-24T11:18:09.356Z,55
2017-11-24T11:19:19.196Z,50
2017-11-24T11:20:29.290Z,50
2017-11-24T11:21:38.910Z,55
2017-11-24T11:22:48.997Z,55
2017-11-24T11:24:00.175Z,50
2017-11-24T11:25:10.016Z,50
2017-11-24T11:26:20.103Z,50
2017-11-24T11:27:30.240Z,50
2017-11-24T11:28:40.044Z,45
2017-11-24T11:29:49.855Z,45
2017-11-24T11:30:59.435Z,45
2017-11-24T11:32:09.537Z,45
2017-11-24T11:33:19.424Z,45
2017-11-24T11:34:29.257Z,50
2017-11-24T11:35:39.345Z,65
2017-11-24T11:36:49.151Z,70
2017-11-24T11:37:58.720Z,70
2017-11-24T11:39:08.595Z,60
2017-11-24T11:40:18.140Z,65
2017-11-24T11:41:27.971Z,70
2017-11-24T11:42:38.086Z,70
2017-11-24T11:43:48.171Z,65
2017-11-24T11:44:58.051Z,65
2017-11-24T11:46:07.902Z,55
2017-11-24T11:47:17.991Z,55
2017-11-24T11:48:28.103Z,60
2017-11-24T11:49:37.955Z,70
2017-11-24T11:50:48.085Z,70
2017-11-24T11:51:58.174Z,70
2017-11-24T11:53:08.019Z,75
2017-11-24T11:54:17.850Z,75
2017-11-24T11:55:28.003Z,60
2017-11-24T11:56:38.133Z,50
2017-11-24T11:57:47.687Z,60
2017-11-24T11:58:57.779Z,55
2017-11-24T12:00:07.873Z,50
2017-11-24T12:01:17.708Z,50
2017-11-24T12:02:27.581Z,55
2017-11-24T12:03:37.667Z,55
2017-11-24T12:04:47.497Z,55
2017-11-24T12:05:57.567Z,45
2017-11-24T12:07:07.654Z,45
2017-11-24T12:08:17.243Z,45
2017-11-24T12:09:27.341Z,45
2017-11-24T12:10:37.167Z,40
2017-11-24T12:11:46.987Z,40
2017-11-24T12:12:56.525Z,45
2017-11-24T12:14:05.908Z,40
2017-11-24T12:15:15.982Z,45
2017-11-24T12:16:26.065Z,40
2017-11-24T12:17:36.151Z,45
2017-11-24T12:18:45.699Z,40
2017-11-24T12:19:55.574Z,45
2017-11-24T12:21:05.396Z,45
2017-11-24T12:22:15.494Z,40
2017-11-24T12:23:25.563Z,40
2017-11-24T12:24:35.443Z,40
2017-11-24T12:25:45.262Z,40
2017-11-24T12:26:55.083Z,40
2017-11-24T12:28:05.173Z,40
2017-11-24T12:29:14.717Z,40
2017-11-24T12:30:24.264Z,35
2017-11-24T12:31:34.349Z,40
2017-11-24T12:32:44.166Z,40
2017-11-24T12:33:54.260Z,40
2017-11-24T12:35:03.572Z,40
2017-11-24T12:36:13.431Z,40
2017-11-24T12:37:23.315Z,35
2017-11-24T12:38:33.416Z,35
2017-11-24T12:39:43.505Z,30
2017-11-24T12:40:53.318Z,30
2017-11-24T12:42:03.414Z,30
2017-11-24T12:43:13.506Z,30
2017-11-24T12:44:23.588Z,30
2017-11-24T12:45:33.667Z,30
2017-11-24T12:46:43.296Z,30
2017-11-24T12:47:53.391Z,30
2017-11-24T12:49:03.253Z,25
2017-11-24T12:50:13.067Z,25
2017-11-24T12:51:23.141Z,25
2017-11-24T12:52:33.224Z,25
2017-11-24T12:53:43.053Z,30
2017-11-24T12:54:52.664Z,25
2017-11-24T12:56:02.761Z,30
2017-11-24T12:57:12.578Z,30
2017-11-24T12:58:22.397Z,25
2017-11-24T12:59:32.207Z,20
2017-11-24T13:00:42.345Z,20
2017-11-24T13:01:52.459Z,20
2017-11-24T13:03:02.261Z,20
2017-11-24T13:04:12.352Z,20
2017-11-24T13:05:21.619Z,20
2017-11-24T13:06:31.223Z,20
2017-11-24T13:07:41.296Z,20
2017-11-24T13:08:51.388Z,20
2017-11-24T13:10:01.235Z,20
2017-11-24T13:11:10.515Z,15
2017-11-24T13:12:20.323Z,15
2017-11-24T13:13:29.608Z,20
2017-11-24T13:14:39.727Z,20
2017-11-24T13:15:49.541Z,15
2017-11-24T13:16:59.374Z,15
2017-11-24T13:18:09.548Z,15
2017-11-24T13:19:19.090Z,10
2017-11-24T13:20:28.389Z,10
2017-11-24T13:21:38.487Z,10
2017-11-24T13:22:48.582Z,10
2017-11-24T13:23:58.447Z,10
2017-11-24T13:25:08.529Z,10
2017-11-24T13:26:18.339Z,10
2017-11-24T13:27:28.162Z,15
2017-11-24T13:28:37.977Z,20
2017-11-24T13:29:48.127Z,20
2017-11-24T13:30:57.686Z,15
2017-11-24T13:32:07.229Z,15
2017-11-24T13:33:17.429Z,15
2017-11-24T13:34:27.530Z,15
2017-11-24T13:35:37.629Z,15
2017-11-24T13:36:47.817Z,15
2017-11-24T13:37:57.888Z,15
2017-11-24T13:39:07.446Z,15
2017-11-24T13:40:17.532Z,15
2017-11-24T13:41:27.654Z,15
2017-11-24T13:42:36.672Z,15
2017-11-24T13:43:46.791Z,15
2017-11-24T13:44:56.869Z,15
2017-11-24T13:46:06.424Z,10
2017-11-24T13:47:16.277Z,10
2017-11-24T13:48:26.403Z,10
2017-11-24T13:49:36.204Z,10
2017-11-24T13:50:45.743Z,10
2017-11-24T13:51:55.827Z,10
2017-11-24T13:53:05.940Z,10
2017-11-24T13:54:15.217Z,10
2017-11-24T13:55:25.040Z,10
2017-11-24T13:56:35.121Z,15
2017-11-24T13:57:44.945Z,10
2017-11-24T13:58:54.764Z,10
2017-11-24T14:00:04.871Z,10
2017-11-24T14:01:14.939Z,10
2017-11-24T14:02:25.011Z,10
2017-11-24T14:03:35.100Z,10
2017-11-24T14:04:44.717Z,10
2017-11-24T14:05:54.791Z,10
2017-11-24T14:07:04.617Z,10
2017-11-24T14:08:14.430Z,10
2017-11-24T14:09:23.976Z,10
2017-11-24T14:10:33.532Z,10
2017-11-24T14:11:43.621Z,10
2017-11-24T14:12:53.703Z,10
2017-11-24T14:14:03.778Z,10
2017-11-24T14:15:13.866Z,10
2017-11-24T14:16:23.993Z,10
2017-11-24T14:17:34.073Z,10
2017-11-24T14:18:43.617Z,5
2017-11-24T14:19:53.439Z,5
2017-11-24T14:21:03.523Z,5
2017-11-24T14:22:13.623Z,5
2017-11-24T14:23:23.713Z,5
2017-11-24T14:24:33.799Z,5
2017-11-24T14:25:43.622Z,5
2017-11-24T14:26:53.866Z,5
2017-11-24T14:28:03.713Z,5
2017-11-24T14:29:13.545Z,5
2017-11-24T14:30:22.817Z,5
2017-11-24T14:31:32.937Z,5
2017-11-24T14:32:43.010Z,5
2017-11-24T14:33:52.829Z,5
2017-11-24T14:35:02.640Z,0
2017-11-24T14:36:12.735Z,0
2017-11-24T14:37:22.584Z,0
2017-11-24T14:38:32.415Z,0
2017-11-24T14:39:42.495Z,0
2017-11-24T14:40:52.323Z,0
2017-11-24T14:42:02.416Z,0
2017-11-24T14:43:12.245Z,0
2017-11-24T14:44:23.181Z,0
2017-11-24T14:45:33.311Z,0
2017-11-24T14:46:43.386Z,0
2017-11-24T14:47:53.215Z,0
2017-11-24T14:49:02.769Z,0
2017-11-24T14:50:12.329Z,0
2017-11-24T14:51:22.434Z,0
2017-11-24T14:52:32.284Z,0
2017-11-24T14:53:42.363Z,0
2017-11-24T14:54:52.455Z,0
2017-11-24T14:56:02.540Z,0
2017-11-24T14:57:12.476Z,0
2017-11-24T14:58:22.305Z,0
2017-11-24T14:59:31.867Z,0
2017-11-24T15:00:41.949Z,0
2017-11-24T15:01:52.030Z,0
2017-11-24T15:03:02.121Z,0
2017-11-24T15:04:11.683Z,0
2017-11-24T15:05:21.546Z,0
2017-11-24T15:06:31.635Z,0
2017-11-24T15:07:41.180Z,0
2017-11-24T15:08:51.325Z,0
2017-11-24T15:10:01.132Z,0
2017-11-24T15:11:10.680Z,0
2017-11-24T15:12:20.260Z,0
2017-11-24T15:13:30.343Z,0
2017-11-24T15:14:40.428Z,0
2017-11-24T15:15:49.974Z,0
2017-11-24T15:16:59.518Z,0
2017-11-24T15:18:09.628Z,0
2017-11-24T15:19:19.444Z,0
2017-11-24T15:20:29.527Z,0
2017-11-24T15:21:39.374Z,0
2017-11-24T15:22:49.211Z,0
2017-11-24T15:23:59.057Z,0
2017-11-24T15:25:09.026Z,0
2017-11-24T15:26:18.889Z,0
2017-11-24T15:27:28.969Z,0
2017-11-24T15:28:38.789Z,0
2017-11-24T15:29:48.597Z,0
2017-11-24T15:30:58.425Z,0
2017-11-24T15:32:08.239Z,0
2017-11-24T15:33:17.807Z,0
2017-11-24T15:34:27.882Z,0
2017-11-24T15:35:37.731Z,0
2017-11-24T15:36:47.822Z,0
2017-11-24T15:37:57.626Z,0
2017-11-24T15:39:07.743Z,0
2017-11-24T15:40:17.312Z,0
2017-11-24T15:41:27.438Z,0
2017-11-24T15:42:37.531Z,0
2017-11-24T15:43:47.458Z,0
2017-11-24T15:44:57.289Z,0
2017-11-24T15:46:07.121Z,0
2017-11-24T15:47:17.219Z,0
2017-11-24T15:48:26.756Z,0
2017-11-24T15:49:36.890Z,0
2017-11-24T15:50:46.703Z,0
2017-11-24T15:51:56.517Z,0
2017-11-24T15:53:06.322Z,0
2017-11-24T15:54:16.414Z,0
2017-11-24T15:55:26.556Z,0
2017-11-24T15:56:36.384Z,0
2017-11-24T15:57:46.200Z,0
2017-11-24T15:58:56.294Z,0
2017-11-24T16:00:06.118Z,0
2017-11-24T16:01:16.006Z,0
2017-11-24T16:02:26.100Z,0
2017-11-24T16:03:35.653Z,0
2017-11-24T16:04:45.504Z,0
2017-11-24T16:05:55.368Z,0
2017-11-24T16:07:05.257Z,0
2017-11-24T16:08:14.554Z,0
2017-11-24T16:09:24.384Z,0
2017-11-24T16:10:34.216Z,0
2017-11-24T16:11:43.489Z,0
2017-11-24T16:12:53.587Z,0
2017-11-24T16:14:03.698Z,0
2017-11-24T16:15:13.775Z,0
2017-11-24T16:16:23.336Z,0
2017-11-24T16:17:33.417Z,0
2017-11-24T16:18:43.492Z,0
2017-11-24T16:19:52.774Z,0
2017-11-24T16:21:02.603Z,0
2017-11-24T16:22:12.705Z,0
2017-11-24T16:23:22.819Z,0
2017-11-24T16:24:32.383Z,0
2017-11-24T16:25:41.943Z,0
2017-11-24T16:26:51.763Z,0
2017-11-24T16:28:01.841Z,0
2017-11-24T16:29:11.947Z,0
2017-11-24T16:30:22.024Z,0
2017-11-24T16:31:32.126Z,0
2017-11-24T16:32:42.231Z,0
2017-11-24T16:33:52.055Z,0
2017-11-24T16:35:01.665Z,0
2017-11-24T16:36:11.227Z,0
2017-11-24T16:37:21.319Z,0
2017-11-24T16:38:31.152Z,0
2017-11-24T16:39:40.973Z,0
2017-11-24T16:40:51.132Z,0
2017-11-24T16:42:01.219Z,0
2017-11-24T16:43:11.042Z,0
2017-11-24T16:44:21.130Z,0
2017-11-24T16:45:30.943Z,0
2017-11-24T16:46:40.834Z,0
2017-11-24T16:47:50.373Z,0
2017-11-24T16:49:00.536Z,0
2017-11-24T16:50:10.642Z,0
2017-11-24T16:51:20.732Z,0
2017-11-24T16:52:30.617Z,0
2017-11-24T16:53:40.697Z,0
2017-11-24T16:54:50.789Z,0
2017-11-24T16:56:00.628Z,0
2017-11-24T16:57:10.513Z,0
2017-11-24T16:58:20.325Z,0
2017-11-24T16:59:29.621Z,0
2017-11-24T17:00:39.440Z,0
2017-11-24T17:01:49.536Z,0
2017-11-24T17:02:59.614Z,0
2017-11-24T17:04:09.739Z,0
2017-11-24T17:05:19.565Z,0
2017-11-24T17:06:29.125Z,0
2017-11-24T17:07:39.212Z,0
2017-11-24T17:08:48.769Z,0
2017-11-24T17:09:59.595Z,0
2017-11-24T17:11:09.407Z,0
2017-11-24T17:12:19.527Z,0
2017-11-24T17:13:29.612Z,0
2017-11-24T17:14:39.764Z,0
2017-11-24T17:15:49.892Z,0
2017-11-24T17:16:59.965Z,0
2017-11-24T17:18:10.060Z,0
2017-11-24T17:19:19.880Z,0
2017-11-24T17:20:29.674Z,0
2017-11-24T17:21:39.245Z,0
2017-11-24T17:22:48.815Z,0
2017-11-24T17:23:58.384Z,0
2017-11-24T17:25:08.205Z,0
2017-11-24T17:26:18.017Z,0
2017-11-24T17:27:28.111Z,0
2017-11-24T17:28:37.927Z,0